createdAt,value
2018-09-10T00:00:28.203Z,4.10
2018-09-10T00:01:28.083Z,4.40
2018-09-10T00:02:27.955Z,4.10
2018-09-10T00:03:27.833Z,4.20
2018-09-10T00:04:27.709Z,4.70
2018-09-10T00:05:27.588Z,4.00
2018-09-10T00:06:27.465Z,4.50
2018-09-10T00:07:27.340Z,4.40
2018-09-10T00:08:27.213Z,4.20
2018-09-10T00:09:27.089Z,4.20
2018-09-10T00:10:26.967Z,4.20
2018-09-10T00:11:26.841Z,4.20
2018-09-10T00:12:26.720Z,4.30
2018-09-10T00:13:26.602Z,4.20
2018-09-10T00:14:26.474Z,3.90
2018-09-10T00:15:26.348Z,4.40
2018-09-10T00:16:26.227Z,3.90
2018-09-10T00:17:26.099Z,4.20
2018-09-10T00:18:25.976Z,4.40
2018-09-10T00:19:25.851Z,4.40
2018-09-10T00:20:25.726Z,4.40
2018-09-10T00:21:25.607Z,4.40
2018-09-10T00:22:25.485Z,4.60
2018-09-10T00:23:25.356Z,4.20
2018-09-10T00:24:25.233Z,4.70
2018-09-10T00:25:25.108Z,4.00
2018-09-10T00:26:24.987Z,4.30
2018-09-10T00:27:24.862Z,4.20
2018-09-10T00:28:24.738Z,4.10
2018-09-10T00:29:24.614Z,3.90
2018-09-10T00:30:24.492Z,4.00
2018-09-10T00:31:24.364Z,4.20
2018-09-10T00:32:24.241Z,4.10
2018-09-10T00:33:24.119Z,4.30
2018-09-10T00:34:23.999Z,4.50
2018-09-10T00:35:23.872Z,4.40
2018-09-10T00:36:23.747Z,4.00
2018-09-10T00:37:23.681Z,4.20
2018-09-10T00:38:23.499Z,4.40
2018-09-10T00:39:23.375Z,4.00
2018-09-10T00:40:23.251Z,4.10
2018-09-10T00:41:23.131Z,4.40
2018-09-10T00:42:23.006Z,4.20
2018-09-10T00:43:22.882Z,4.20
2018-09-10T00:44:22.756Z,4.10
2018-09-10T00:45:22.633Z,4.30
2018-09-10T00:46:22.510Z,4.30
2018-09-10T00:47:22.396Z,4.60
2018-09-10T00:48:22.265Z,4.10
2018-09-10T00:49:22.140Z,4.60
2018-09-10T00:50:22.014Z,4.30
2018-09-10T00:51:21.890Z,4.60
2018-09-10T00:52:21.770Z,4.00
2018-09-10T00:53:21.643Z,3.80
2018-09-10T00:54:21.518Z,4.10
2018-09-10T00:55:21.393Z,4.40
2018-09-10T00:56:21.269Z,4.30
2018-09-10T00:57:21.146Z,4.30
2018-09-10T00:58:21.024Z,4.00
2018-09-10T00:59:20.900Z,4.40
2018-09-10T01:00:20.773Z,4.40
2018-09-10T01:01:20.649Z,4.30
2018-09-10T01:02:20.531Z,4.40
2018-09-10T01:03:20.403Z,4.20
2018-09-10T01:04:20.278Z,4.40
2018-09-10T01:05:20.155Z,4.30
2018-09-10T01:06:20.031Z,4.30
2018-09-10T01:07:19.907Z,4.40
2018-09-10T01:08:19.781Z,4.00
2018-09-10T01:09:19.659Z,4.20
2018-09-10T01:10:19.534Z,4.50
2018-09-10T01:11:19.410Z,4.20
2018-09-10T01:12:19.285Z,4.20
2018-09-10T01:13:19.165Z,4.20
2018-09-10T01:14:19.040Z,4.40
2018-09-10T01:15:18.922Z,4.60
2018-09-10T01:16:18.791Z,4.50
2018-09-10T01:17:18.664Z,4.50
2018-09-10T01:18:18.542Z,4.70
2018-09-10T01:19:18.417Z,4.30
2018-09-10T01:20:18.295Z,4.60
2018-09-10T01:21:18.170Z,3.90
2018-09-10T01:22:18.045Z,4.10
2018-09-10T01:23:17.920Z,4.00
2018-09-10T01:24:17.797Z,4.10
2018-09-10T01:25:17.675Z,4.50
2018-09-10T01:26:17.548Z,4.20
2018-09-10T01:27:17.456Z,4.10
2018-09-10T01:28:17.300Z,4.30
2018-09-10T01:29:17.177Z,4.50
2018-09-10T01:30:17.054Z,4.10
2018-09-10T01:31:16.929Z,4.30
2018-09-10T01:32:16.806Z,4.40
2018-09-10T01:33:16.682Z,4.50
2018-09-10T01:34:16.555Z,4.20
2018-09-10T01:35:16.432Z,4.40
2018-09-10T01:36:16.310Z,4.00
2018-09-10T01:37:16.186Z,4.30
2018-09-10T01:38:16.060Z,4.60
2018-09-10T01:39:15.932Z,4.50
2018-09-10T01:40:15.808Z,4.20
2018-09-10T01:41:15.686Z,4.30
2018-09-10T01:42:15.564Z,4.60
2018-09-10T01:43:15.444Z,4.50
2018-09-10T01:44:15.314Z,4.40
2018-09-10T01:45:15.188Z,4.50
2018-09-10T01:46:15.066Z,4.50
2018-09-10T01:47:14.940Z,4.40
2018-09-10T01:48:14.817Z,4.30
2018-09-10T01:49:14.691Z,4.50
2018-09-10T01:50:14.572Z,4.30
2018-09-10T01:51:14.445Z,4.40
2018-09-10T01:52:14.317Z,4.20
2018-09-10T01:53:14.193Z,4.40
2018-09-10T01:54:14.069Z,4.10
2018-09-10T01:55:13.945Z,4.30
2018-09-10T01:56:13.821Z,4.10
2018-09-10T01:57:13.697Z,4.60
2018-09-10T01:58:13.575Z,4.00
2018-09-10T01:59:13.447Z,4.10
2018-09-10T02:00:13.323Z,4.40
2018-09-10T02:01:13.200Z,4.10
2018-09-10T02:02:13.077Z,4.50
2018-09-10T02:03:12.952Z,4.60
2018-09-10T02:04:12.829Z,4.50
2018-09-10T02:05:12.703Z,4.70
2018-09-10T02:06:12.581Z,4.50
2018-09-10T02:07:12.458Z,4.70
2018-09-10T02:08:12.332Z,4.10
2018-09-10T02:09:12.207Z,4.50
2018-09-10T02:10:12.081Z,4.20
2018-09-10T02:11:11.961Z,4.40
2018-09-10T02:12:11.834Z,4.50
2018-09-10T02:13:11.710Z,4.60
2018-09-10T02:14:11.589Z,4.40
2018-09-10T02:15:11.464Z,4.00
2018-09-10T02:16:11.337Z,4.20
2018-09-10T02:17:11.233Z,4.60
2018-09-10T02:18:11.087Z,4.60
2018-09-10T02:19:10.966Z,4.50
2018-09-10T02:20:10.892Z,4.30
2018-09-10T02:21:10.719Z,4.20
2018-09-10T02:22:10.591Z,4.40
2018-09-10T02:23:10.465Z,4.40
2018-09-10T02:24:10.341Z,4.50
2018-09-10T02:25:10.218Z,4.20
2018-09-10T02:26:10.095Z,4.30
2018-09-10T02:27:09.969Z,4.80
2018-09-10T02:28:09.848Z,4.60
2018-09-10T02:29:09.725Z,4.20
2018-09-10T02:30:09.603Z,4.40
2018-09-10T02:31:09.477Z,4.50
2018-09-10T02:32:09.347Z,4.20
2018-09-10T02:33:09.223Z,4.70
2018-09-10T02:34:09.100Z,4.10
2018-09-10T02:35:08.996Z,4.10
2018-09-10T02:36:08.852Z,4.70
2018-09-10T02:37:08.728Z,4.50
2018-09-10T02:38:08.602Z,4.70
2018-09-10T02:39:08.476Z,4.00
2018-09-10T02:40:08.351Z,4.40
2018-09-10T02:41:08.242Z,4.20
2018-09-10T02:42:08.107Z,4.50
2018-09-10T02:43:07.980Z,3.90
2018-09-10T02:44:07.860Z,4.10
2018-09-10T02:45:07.729Z,4.00
2018-09-10T02:46:07.610Z,4.30
2018-09-10T02:47:07.484Z,4.50
2018-09-10T02:48:07.361Z,4.30
2018-09-10T02:49:07.239Z,4.20
2018-09-10T02:50:07.112Z,4.30
2018-09-10T02:51:06.986Z,4.10
2018-09-10T02:52:06.869Z,4.40
2018-09-10T02:53:06.742Z,4.20
2018-09-10T02:54:06.622Z,4.50
2018-09-10T02:55:06.544Z,4.20
2018-09-10T02:56:06.367Z,4.50
2018-09-10T02:57:06.245Z,4.70
2018-09-10T02:58:06.122Z,4.50
2018-09-10T02:59:05.995Z,4.80
2018-09-10T03:00:05.871Z,4.10
2018-09-10T03:01:05.750Z,4.30
2018-09-10T03:02:05.623Z,4.00
2018-09-10T03:03:05.499Z,4.20
2018-09-10T03:04:05.375Z,4.60
2018-09-10T03:05:05.250Z,4.20
2018-09-10T03:06:05.126Z,4.60
2018-09-10T03:07:05.004Z,4.40
2018-09-10T03:08:04.879Z,4.60
2018-09-10T03:09:04.760Z,4.70
2018-09-10T03:10:04.627Z,4.40
2018-09-10T03:11:04.504Z,4.30
2018-09-10T03:12:04.380Z,4.20
2018-09-10T03:13:04.257Z,4.20
2018-09-10T03:14:04.136Z,4.30
2018-09-10T03:15:04.008Z,4.40
2018-09-10T03:16:03.890Z,4.20
2018-09-10T03:17:03.760Z,4.30
2018-09-10T03:18:03.702Z,4.50
2018-09-10T03:19:03.520Z,4.00
2018-09-10T03:20:03.389Z,4.20
2018-09-10T03:21:03.266Z,4.20
2018-09-10T03:22:03.141Z,3.90
2018-09-10T03:23:03.016Z,4.00
2018-09-10T03:24:02.957Z,3.90
2018-09-10T03:25:02.769Z,3.90
2018-09-10T03:26:02.645Z,4.30
2018-09-10T03:27:02.521Z,4.30
2018-09-10T03:28:02.397Z,4.10
2018-09-10T03:29:02.273Z,4.20
2018-09-10T03:30:02.154Z,4.20
2018-09-10T03:31:02.041Z,4.30
2018-09-10T03:32:01.900Z,4.20
2018-09-10T03:33:01.775Z,4.20
2018-09-10T03:34:01.653Z,3.80
2018-09-10T03:35:01.526Z,4.00
2018-09-10T03:36:01.404Z,4.30
2018-09-10T03:37:01.279Z,4.20
2018-09-10T03:38:01.154Z,4.30
2018-09-10T03:39:01.032Z,4.20
2018-09-10T03:40:00.907Z,4.40
2018-09-10T03:41:00.783Z,4.00
2018-09-10T03:42:00.662Z,4.50
2018-09-10T03:43:00.537Z,4.10
2018-09-10T03:44:00.425Z,4.10
2018-09-10T03:45:00.292Z,4.40
2018-09-10T03:46:00.165Z,3.70
2018-09-10T03:47:00.041Z,4.30
2018-09-10T03:47:59.915Z,4.20
2018-09-10T03:48:59.791Z,4.30
2018-09-10T03:49:59.668Z,4.50
2018-09-10T03:50:59.543Z,4.20
2018-09-10T03:51:59.419Z,3.90
2018-09-10T03:52:59.295Z,4.20
2018-09-10T03:53:59.171Z,4.20
2018-09-10T03:54:59.044Z,4.30
2018-09-10T03:55:58.921Z,4.20
2018-09-10T03:56:58.798Z,4.40
2018-09-10T03:57:58.675Z,4.20
2018-09-10T03:58:58.550Z,4.10
2018-09-10T03:59:58.425Z,4.30
2018-09-10T04:00:58.299Z,4.30
2018-09-10T04:01:58.177Z,4.20
2018-09-10T04:02:58.054Z,4.20
2018-09-10T04:03:57.967Z,4.10
2018-09-10T04:04:57.808Z,4.00
2018-09-10T04:05:57.681Z,4.20
2018-09-10T04:06:57.553Z,4.50
2018-09-10T04:07:57.428Z,4.50
2018-09-10T04:08:57.309Z,4.50
2018-09-10T04:09:57.190Z,4.50
2018-09-10T04:10:57.061Z,4.20
2018-09-10T04:11:56.932Z,4.10
2018-09-10T04:12:56.810Z,4.20
2018-09-10T04:13:56.688Z,4.00
2018-09-10T04:14:56.559Z,4.30
2018-09-10T04:15:56.435Z,4.20
2018-09-10T04:16:56.313Z,4.40
2018-09-10T04:17:56.187Z,4.20
2018-09-10T04:18:56.064Z,4.30
2018-09-10T04:19:55.940Z,4.30
2018-09-10T04:20:55.813Z,4.50
2018-09-10T04:21:55.690Z,4.40
2018-09-10T04:22:55.567Z,4.00
2018-09-10T04:23:55.444Z,4.20
2018-09-10T04:24:55.319Z,4.10
2018-09-10T04:25:55.283Z,4.30
2018-09-10T04:26:55.085Z,4.40
2018-09-10T04:27:55.045Z,3.90
2018-09-10T04:28:54.821Z,4.20
2018-09-10T04:29:54.699Z,4.10
2018-09-10T04:30:54.572Z,4.30
2018-09-10T04:31:54.448Z,4.70
2018-09-10T04:32:54.330Z,4.00
2018-09-10T04:33:54.221Z,4.10
2018-09-10T04:34:54.075Z,4.10
2018-09-10T04:35:53.959Z,4.10
2018-09-10T04:36:53.828Z,4.50
2018-09-10T04:37:53.704Z,4.50
2018-09-10T04:38:53.580Z,4.20
2018-09-10T04:39:53.497Z,4.40
2018-09-10T04:40:53.330Z,4.20
2018-09-10T04:41:53.205Z,3.90
2018-09-10T04:42:53.080Z,4.10
2018-09-10T04:43:52.955Z,4.40
2018-09-10T04:44:52.833Z,4.30
2018-09-10T04:45:52.707Z,4.40
2018-09-10T04:46:52.584Z,4.30
2018-09-10T04:47:52.459Z,4.50
2018-09-10T04:48:52.335Z,4.50
2018-09-10T04:49:52.384Z,4.40
2018-09-10T04:50:52.084Z,4.40
2018-09-10T04:51:51.965Z,4.40
2018-09-10T04:52:51.835Z,4.20
2018-09-10T04:53:51.710Z,4.30
2018-09-10T04:54:51.583Z,4.20
2018-09-10T04:55:51.461Z,4.00
2018-09-10T04:56:51.341Z,4.30
2018-09-10T04:57:51.213Z,4.10
2018-09-10T04:58:51.089Z,4.70
2018-09-10T04:59:50.964Z,4.30
2018-09-10T05:00:50.839Z,4.20
2018-09-10T05:01:50.716Z,4.40
2018-09-10T05:02:50.591Z,4.20
2018-09-10T05:03:50.465Z,4.50
2018-09-10T05:04:50.339Z,4.40
2018-09-10T05:05:50.217Z,4.40
2018-09-10T05:06:50.090Z,4.70
2018-09-10T05:07:49.967Z,4.70
2018-09-10T05:08:49.840Z,4.60
2018-09-10T05:09:49.725Z,4.30
2018-09-10T05:10:49.593Z,4.30
2018-09-10T05:11:49.470Z,4.50
2018-09-10T05:12:49.344Z,4.40
2018-09-10T05:13:49.220Z,4.10
2018-09-10T05:14:49.094Z,4.20
2018-09-10T05:15:48.969Z,4.50
2018-09-10T05:16:48.848Z,4.00
2018-09-10T05:17:48.721Z,4.20
2018-09-10T05:18:48.597Z,4.20
2018-09-10T05:19:48.473Z,4.10
2018-09-10T05:20:48.348Z,4.20
2018-09-10T05:21:48.240Z,4.50
2018-09-10T05:22:48.100Z,4.10
2018-09-10T05:23:47.975Z,4.40
2018-09-10T05:24:47.852Z,4.60
2018-09-10T05:25:47.728Z,4.40
2018-09-10T05:26:47.602Z,4.10
2018-09-10T05:27:47.481Z,4.30
2018-09-10T05:28:47.353Z,4.40
2018-09-10T05:29:47.228Z,4.30
2018-09-10T05:30:47.106Z,4.60
2018-09-10T05:31:46.982Z,4.20
2018-09-10T05:32:46.857Z,4.20
2018-09-10T05:33:46.733Z,4.60
2018-09-10T05:34:46.610Z,4.20
2018-09-10T05:35:46.484Z,4.10
2018-09-10T05:36:46.363Z,4.40
2018-09-10T05:37:46.240Z,4.50
2018-09-10T05:38:46.112Z,4.10
2018-09-10T05:39:45.988Z,4.60
2018-09-10T05:40:45.864Z,4.20
2018-09-10T05:41:45.778Z,4.40
2018-09-10T05:42:45.617Z,4.30
2018-09-10T05:43:45.491Z,4.20
2018-09-10T05:44:45.370Z,4.30
2018-09-10T05:45:45.245Z,4.60
2018-09-10T05:46:45.118Z,4.30
2018-09-10T05:47:44.997Z,4.40
2018-09-10T05:48:44.870Z,4.20
2018-09-10T05:49:44.747Z,4.10
2018-09-10T05:50:44.623Z,4.00
2018-09-10T05:51:44.498Z,4.30
2018-09-10T05:52:44.375Z,3.90
2018-09-10T05:53:44.249Z,4.30
2018-09-10T05:54:44.131Z,3.90
2018-09-10T05:55:44.002Z,3.50
2018-09-10T05:56:43.879Z,4.10
2018-09-10T05:57:43.753Z,4.20
2018-09-10T05:58:43.629Z,3.90
2018-09-10T05:59:43.510Z,4.00
2018-09-10T06:00:43.385Z,4.00
2018-09-10T06:01:43.261Z,4.10
2018-09-10T06:02:43.134Z,3.70
2018-09-10T06:03:43.012Z,3.80
2018-09-10T06:04:42.886Z,4.40
2018-09-10T06:05:42.764Z,4.10
2018-09-10T06:06:42.644Z,4.00
2018-09-10T06:07:42.517Z,3.70
2018-09-10T06:08:42.399Z,4.10
2018-09-10T06:09:42.269Z,3.60
2018-09-10T06:10:42.148Z,4.10
2018-09-10T06:11:42.026Z,4.20
2018-09-10T06:12:41.898Z,4.10
2018-09-10T06:13:41.784Z,4.40
2018-09-10T06:14:41.653Z,4.20
2018-09-10T06:15:41.539Z,4.10
2018-09-10T06:16:41.482Z,4.30
2018-09-10T06:17:41.295Z,4.10
2018-09-10T06:18:41.158Z,4.10
2018-09-10T06:19:41.036Z,3.80
2018-09-10T06:20:40.912Z,4.10
2018-09-10T06:21:40.790Z,4.20
2018-09-10T06:22:40.666Z,4.10
2018-09-10T06:23:40.542Z,4.10
2018-09-10T06:24:40.420Z,4.20
2018-09-10T06:25:40.298Z,4.40
2018-09-10T06:26:40.176Z,4.00
2018-09-10T06:27:40.053Z,4.20
2018-09-10T06:28:39.932Z,3.70
2018-09-10T06:29:39.814Z,3.90
2018-09-10T06:30:39.700Z,3.70
2018-09-10T06:31:39.562Z,3.70
2018-09-10T06:32:39.438Z,3.80
2018-09-10T06:33:39.317Z,3.80
2018-09-10T06:34:39.195Z,3.90
2018-09-10T06:35:39.072Z,3.90
2018-09-10T06:36:38.949Z,4.20
2018-09-10T06:37:38.825Z,3.80
2018-09-10T06:38:38.702Z,4.10
2018-09-10T06:39:38.584Z,4.00
2018-09-10T06:40:38.463Z,4.10
2018-09-10T06:41:38.337Z,3.70
2018-09-10T06:42:38.214Z,3.80
2018-09-10T06:43:38.090Z,3.50
2018-09-10T06:44:37.972Z,3.60
2018-09-10T06:45:37.845Z,3.60
2018-09-10T06:46:37.722Z,3.40
2018-09-10T06:47:37.656Z,3.70
2018-09-10T06:48:37.479Z,3.80
2018-09-10T06:49:37.357Z,3.50
2018-09-10T06:50:37.235Z,3.40
2018-09-10T06:51:37.111Z,3.60
2018-09-10T06:52:36.988Z,4.00
2018-09-10T06:53:36.869Z,3.90
2018-09-10T06:54:36.749Z,3.80
2018-09-10T06:55:36.622Z,3.70
2018-09-10T06:56:36.501Z,3.60
2018-09-10T06:57:36.380Z,3.50
2018-09-10T06:58:36.257Z,3.50
2018-09-10T06:59:36.134Z,3.70
2018-09-10T07:00:36.014Z,3.60
2018-09-10T07:01:35.889Z,3.50
2018-09-10T07:02:35.765Z,3.90
2018-09-10T07:03:35.645Z,3.60
2018-09-10T07:04:35.524Z,3.60
2018-09-10T07:05:35.403Z,3.70
2018-09-10T07:06:35.319Z,3.50
2018-09-10T07:07:35.158Z,3.60
2018-09-10T07:08:35.032Z,3.70
2018-09-10T07:09:34.912Z,3.70
2018-09-10T07:10:34.792Z,3.20
2018-09-10T07:11:34.666Z,3.60
2018-09-10T07:12:34.583Z,3.20
2018-09-10T07:13:34.426Z,3.60
2018-09-10T07:14:34.307Z,3.60
2018-09-10T07:15:34.179Z,3.70
2018-09-10T07:16:34.059Z,3.70
2018-09-10T07:17:33.939Z,3.70
2018-09-10T07:18:33.850Z,3.60
2018-09-10T07:19:33.694Z,3.40
2018-09-10T07:20:33.573Z,3.60
2018-09-10T07:21:33.451Z,3.80
2018-09-10T07:22:33.331Z,3.50
2018-09-10T07:23:33.240Z,3.50
2018-09-10T07:24:33.089Z,3.30
2018-09-10T07:25:32.969Z,3.40
2018-09-10T07:26:32.846Z,3.50
2018-09-10T07:27:32.724Z,3.70
2018-09-10T07:28:32.604Z,3.20
2018-09-10T07:29:32.483Z,3.70
2018-09-10T07:30:32.361Z,3.60
2018-09-10T07:31:32.241Z,3.80
2018-09-10T07:32:32.119Z,3.30
2018-09-10T07:33:32.003Z,3.40
2018-09-10T07:34:31.927Z,3.50
2018-09-10T07:35:31.758Z,3.40
2018-09-10T07:36:31.635Z,3.60
2018-09-10T07:37:31.517Z,3.50
2018-09-10T07:38:31.396Z,3.30
2018-09-10T07:39:31.273Z,3.40
2018-09-10T07:40:31.148Z,3.40
2018-09-10T07:41:31.032Z,3.40
2018-09-10T07:42:30.910Z,3.50
2018-09-10T07:43:30.842Z,3.60
2018-09-10T07:44:30.664Z,3.30
2018-09-10T07:45:30.546Z,3.60
2018-09-10T07:46:30.421Z,3.40
2018-09-10T07:47:30.300Z,3.30
2018-09-10T07:48:30.181Z,3.30
2018-09-10T07:49:30.061Z,3.30
2018-09-10T07:50:29.942Z,3.10
2018-09-10T07:51:29.813Z,3.30
2018-09-10T07:52:29.703Z,3.20
2018-09-10T07:53:29.577Z,3.40
2018-09-10T07:54:29.519Z,3.70
2018-09-10T07:55:29.335Z,3.40
2018-09-10T07:56:29.210Z,3.60
2018-09-10T07:57:29.093Z,3.40
2018-09-10T07:58:28.976Z,3.70
2018-09-10T07:59:28.848Z,3.50
2018-09-10T08:00:28.731Z,4.00
2018-09-10T08:01:28.613Z,4.90
2018-09-10T08:02:28.488Z,3.70
2018-09-10T08:03:28.367Z,3.60
2018-09-10T08:04:28.250Z,4.00
2018-09-10T08:05:28.134Z,3.60
2018-09-10T08:06:28.006Z,3.80
2018-09-10T08:07:27.887Z,3.50
2018-09-10T08:08:27.768Z,7.20
2018-09-10T08:09:27.780Z,11.20
2018-09-10T08:10:27.531Z,6.60
2018-09-10T08:11:27.409Z,8.20
2018-09-10T08:12:27.291Z,5.70
2018-09-10T08:13:27.169Z,6.30
2018-09-10T08:14:27.046Z,12.00
2018-09-10T08:15:26.927Z,14.40
2018-09-10T08:16:26.831Z,5.30
2018-09-10T08:17:26.688Z,12.10
2018-09-10T08:18:26.571Z,9.70
2018-09-10T08:19:26.447Z,8.50
2018-09-10T08:20:26.332Z,6.40
2018-09-10T08:21:26.211Z,6.50
2018-09-10T08:22:26.090Z,5.50
2018-09-10T08:23:25.971Z,3.80
2018-09-10T08:24:25.882Z,5.00
2018-09-10T08:25:25.735Z,4.10
2018-09-10T08:26:25.617Z,4.20
2018-09-10T08:27:25.494Z,3.80
2018-09-10T08:28:25.377Z,4.10
2018-09-10T08:29:25.256Z,3.80
2018-09-10T08:30:25.177Z,3.90
2018-09-10T08:31:25.019Z,3.60
2018-09-10T08:32:24.902Z,4.00
2018-09-10T08:33:24.782Z,3.40
2018-09-10T08:34:24.665Z,3.60
2018-09-10T08:35:24.543Z,3.60
2018-09-10T08:36:24.424Z,3.80
2018-09-10T08:37:24.310Z,3.40
2018-09-10T08:38:24.190Z,3.50
2018-09-10T08:39:24.071Z,3.30
2018-09-10T08:40:23.951Z,3.70
2018-09-10T08:41:23.835Z,3.60
2018-09-10T08:42:23.713Z,3.30
2018-09-10T08:43:23.596Z,3.80
2018-09-10T08:44:23.479Z,3.50
2018-09-10T08:45:23.359Z,3.60
2018-09-10T08:46:23.240Z,3.40
2018-09-10T08:47:23.125Z,3.70
2018-09-10T08:48:23.107Z,3.70
2018-09-10T08:49:22.892Z,3.70
2018-09-10T08:50:22.767Z,3.40
2018-09-10T08:51:22.649Z,3.70
2018-09-10T08:52:22.532Z,3.30
2018-09-10T08:53:22.416Z,3.50
2018-09-10T08:54:22.380Z,3.20
2018-09-10T08:55:22.286Z,3.50
2018-09-10T08:56:22.081Z,3.70
2018-09-10T08:57:21.941Z,3.30
2018-09-10T08:58:21.824Z,3.40
2018-09-10T08:59:21.706Z,3.30
2018-09-10T09:00:21.659Z,3.60
2018-09-10T09:01:21.473Z,3.70
2018-09-10T09:02:21.355Z,3.50
2018-09-10T09:03:21.237Z,3.90
2018-09-10T09:04:21.118Z,3.80
2018-09-10T09:05:21.003Z,3.60
2018-09-10T09:06:20.900Z,3.80
2018-09-10T09:07:20.766Z,3.40
2018-09-10T09:08:20.648Z,3.40
2018-09-10T09:09:20.533Z,3.40
2018-09-10T09:10:20.414Z,3.50
2018-09-10T09:11:20.297Z,3.30
2018-09-10T09:12:20.180Z,3.40
2018-09-10T09:13:20.065Z,3.50
2018-09-10T09:14:19.947Z,3.30
2018-09-10T09:15:19.829Z,3.50
2018-09-10T09:16:19.712Z,3.40
2018-09-10T09:17:19.604Z,3.60
2018-09-10T09:18:19.478Z,3.40
2018-09-10T09:19:19.362Z,3.70
2018-09-10T09:20:19.242Z,3.20
2018-09-10T09:21:19.127Z,3.80
2018-09-10T09:22:19.008Z,3.70
2018-09-10T09:23:19.029Z,3.40
2018-09-10T09:24:18.774Z,3.30
2018-09-10T09:25:18.659Z,3.40
2018-09-10T09:26:18.543Z,3.30
2018-09-10T09:27:18.425Z,3.20
2018-09-10T09:28:18.310Z,3.20
2018-09-10T09:29:18.195Z,3.60
2018-09-10T09:30:18.148Z,3.40
2018-09-10T09:31:17.958Z,3.60
2018-09-10T09:32:17.840Z,3.50
2018-09-10T09:33:17.726Z,3.30
2018-09-10T09:34:17.605Z,3.20
2018-09-10T09:35:17.491Z,3.40
2018-09-10T09:36:17.380Z,3.20
2018-09-10T09:37:17.258Z,3.50
2018-09-10T09:38:17.144Z,3.40
2018-09-10T09:39:17.029Z,3.30
2018-09-10T09:40:16.908Z,3.00
2018-09-10T09:41:16.791Z,3.20
2018-09-10T09:42:16.674Z,3.00
2018-09-10T09:43:16.621Z,3.20
2018-09-10T09:44:16.441Z,3.20
2018-09-10T09:45:16.330Z,3.20
2018-09-10T09:46:16.212Z,3.40
2018-09-10T09:47:16.094Z,3.50
2018-09-10T09:48:15.980Z,3.20
2018-09-10T09:49:15.861Z,4.50
2018-09-10T09:50:15.746Z,8.10
2018-09-10T09:51:15.710Z,4.20
2018-09-10T09:52:15.515Z,3.70
2018-09-10T09:53:15.399Z,3.90
2018-09-10T09:54:15.281Z,3.60
2018-09-10T09:55:15.165Z,3.70
2018-09-10T09:56:15.050Z,3.20
2018-09-10T09:57:14.934Z,3.40
2018-09-10T09:58:14.823Z,3.30
2018-09-10T09:59:14.703Z,3.30
2018-09-10T10:00:14.588Z,3.10
2018-09-10T10:01:14.479Z,3.00
2018-09-10T10:02:14.358Z,3.10
2018-09-10T10:03:14.239Z,3.40
2018-09-10T10:04:14.197Z,3.40
2018-09-10T10:05:14.008Z,3.40
2018-09-10T10:06:13.891Z,3.10
2018-09-10T10:07:13.781Z,3.50
2018-09-10T10:08:13.660Z,3.20
2018-09-10T10:09:13.550Z,3.30
2018-09-10T10:10:13.479Z,3.50
2018-09-10T10:11:13.384Z,3.20
2018-09-10T10:12:13.262Z,3.20
2018-09-10T10:13:13.086Z,3.30
2018-09-10T10:14:12.972Z,3.30
2018-09-10T10:15:12.854Z,3.40
2018-09-10T10:16:12.746Z,3.50
2018-09-10T10:17:12.625Z,3.40
2018-09-10T10:18:12.512Z,3.50
2018-09-10T10:19:12.393Z,3.50
2018-09-10T10:20:12.279Z,3.50
2018-09-10T10:21:12.164Z,3.30
2018-09-10T10:22:12.047Z,3.50
2018-09-10T10:23:11.936Z,3.50
2018-09-10T10:24:11.814Z,3.40
2018-09-10T10:25:11.699Z,3.60
2018-09-10T10:26:11.584Z,4.10
2018-09-10T10:27:11.466Z,3.70
2018-09-10T10:28:11.357Z,3.90
2018-09-10T10:29:11.232Z,3.80
2018-09-10T10:30:11.113Z,3.80
2018-09-10T10:31:11.001Z,3.70
2018-09-10T10:32:10.881Z,3.90
2018-09-10T10:33:10.767Z,3.60
2018-09-10T10:34:10.648Z,4.00
2018-09-10T10:35:10.536Z,4.00
2018-09-10T10:36:10.420Z,4.00
2018-09-10T10:37:10.296Z,3.70
2018-09-10T10:38:10.183Z,3.80
2018-09-10T10:39:10.067Z,3.50
2018-09-10T10:40:09.945Z,4.00
2018-09-10T10:41:09.834Z,3.80
2018-09-10T10:42:09.711Z,3.80
2018-09-10T10:43:09.594Z,3.70
2018-09-10T10:44:09.475Z,3.90
2018-09-10T10:45:09.358Z,3.60
2018-09-10T10:46:09.243Z,3.90
2018-09-10T10:47:09.124Z,3.90
2018-09-10T10:48:09.012Z,3.60
2018-09-10T10:49:08.890Z,3.70
2018-09-10T10:50:08.772Z,3.90
2018-09-10T10:51:08.657Z,3.60
2018-09-10T10:52:08.538Z,4.00
2018-09-10T10:53:08.421Z,3.80
2018-09-10T10:54:08.302Z,3.80
2018-09-10T10:55:08.187Z,3.70
2018-09-10T10:56:08.071Z,3.70
2018-09-10T10:57:07.953Z,3.80
2018-09-10T10:58:07.834Z,4.10
2018-09-10T10:59:07.721Z,4.00
2018-09-10T11:00:07.600Z,4.10
2018-09-10T11:01:07.485Z,4.10
2018-09-10T11:02:07.372Z,4.40
2018-09-10T11:03:07.249Z,4.20
2018-09-10T11:04:07.140Z,3.90
2018-09-10T11:05:07.019Z,3.90
2018-09-10T11:06:06.897Z,4.20
2018-09-10T11:07:06.780Z,4.10
2018-09-10T11:08:06.660Z,3.80
2018-09-10T11:09:06.542Z,4.00
2018-09-10T11:10:06.426Z,4.30
2018-09-10T11:11:06.308Z,3.60
2018-09-10T11:12:06.190Z,3.90
2018-09-10T11:13:06.072Z,3.90
2018-09-10T11:14:05.951Z,4.20
2018-09-10T11:15:05.835Z,4.10
2018-09-10T11:16:05.722Z,4.10
2018-09-10T11:17:05.600Z,4.00
2018-09-10T11:18:05.481Z,4.10
2018-09-10T11:19:05.364Z,4.10
2018-09-10T11:20:05.243Z,4.40
2018-09-10T11:21:05.125Z,4.20
2018-09-10T11:22:05.008Z,4.30
2018-09-10T11:23:04.889Z,4.10
2018-09-10T11:24:04.769Z,4.10
2018-09-10T11:25:04.652Z,3.90
2018-09-10T11:26:04.532Z,4.10
2018-09-10T11:27:04.417Z,3.80
2018-09-10T11:28:04.298Z,3.70
2018-09-10T11:29:04.179Z,4.00
2018-09-10T11:30:04.064Z,3.70
2018-09-10T11:31:03.952Z,3.70
2018-09-10T11:32:03.828Z,4.00
2018-09-10T11:33:03.717Z,3.80
2018-09-10T11:34:03.594Z,3.70
2018-09-10T11:35:03.480Z,3.90
2018-09-10T11:36:03.361Z,3.90
2018-09-10T11:37:03.243Z,3.70
2018-09-10T11:38:03.127Z,3.80
2018-09-10T11:39:03.009Z,3.30
2018-09-10T11:40:02.895Z,4.10
2018-09-10T11:41:02.777Z,3.70
2018-09-10T11:42:02.662Z,3.60
2018-09-10T11:43:02.543Z,3.90
2018-09-10T11:44:02.445Z,3.60
2018-09-10T11:45:02.317Z,4.00
2018-09-10T11:46:02.198Z,4.00
2018-09-10T11:47:02.091Z,3.80
2018-09-10T11:48:01.966Z,3.50
2018-09-10T11:49:01.852Z,3.50
2018-09-10T11:50:01.739Z,3.90
2018-09-10T11:51:01.622Z,3.90
2018-09-10T11:52:01.502Z,3.70
2018-09-10T11:53:01.388Z,4.20
2018-09-10T11:54:01.271Z,3.80
2018-09-10T11:55:01.165Z,3.80
2018-09-10T11:56:01.039Z,3.40
2018-09-10T11:57:00.927Z,3.30
2018-09-10T11:58:00.811Z,3.60
2018-09-10T11:59:00.701Z,3.30
2018-09-10T12:00:00.580Z,3.50
2018-09-10T12:01:00.464Z,3.50
2018-09-10T12:02:00.358Z,3.80
2018-09-10T12:03:00.242Z,3.60
2018-09-10T12:04:00.118Z,3.00
2018-09-10T12:05:00.005Z,3.10
2018-09-10T12:05:59.887Z,3.30
2018-09-10T12:06:59.772Z,3.10
2018-09-10T12:07:59.658Z,3.20
2018-09-10T12:08:59.546Z,3.40
2018-09-10T12:09:59.430Z,3.40
2018-09-10T12:10:59.310Z,3.50
2018-09-10T12:11:59.196Z,3.20
2018-09-10T12:12:59.083Z,3.00
2018-09-10T12:13:58.973Z,3.20
2018-09-10T12:14:58.852Z,3.20
2018-09-10T12:15:58.737Z,3.40
2018-09-10T12:16:58.622Z,2.90
2018-09-10T12:17:58.506Z,3.20
2018-09-10T12:18:58.396Z,3.00
2018-09-10T12:19:58.276Z,3.00
2018-09-10T12:20:58.163Z,3.00
2018-09-10T12:21:58.048Z,2.80
2018-09-10T12:22:57.932Z,3.00
2018-09-10T12:23:57.821Z,3.10
2018-09-10T12:24:57.707Z,2.70
2018-09-10T12:25:57.590Z,2.80
2018-09-10T12:26:57.483Z,3.00
2018-09-10T12:27:57.363Z,2.90
2018-09-10T12:28:57.246Z,3.00
2018-09-10T12:29:57.135Z,2.90
2018-09-10T12:30:57.016Z,3.10
2018-09-10T12:31:56.901Z,3.00
2018-09-10T12:32:56.789Z,2.80
2018-09-10T12:33:56.673Z,3.00
2018-09-10T12:34:56.558Z,3.00
2018-09-10T12:35:56.445Z,3.10
2018-09-10T12:36:56.330Z,3.10
2018-09-10T12:37:56.214Z,2.80
2018-09-10T12:38:56.102Z,3.00
2018-09-10T12:39:55.988Z,3.10
2018-09-10T12:40:55.872Z,3.30
2018-09-10T12:41:55.757Z,3.10
2018-09-10T12:42:55.642Z,3.00
2018-09-10T12:43:55.528Z,3.00
2018-09-10T12:44:55.413Z,3.00
2018-09-10T12:45:55.299Z,3.10
2018-09-10T12:46:55.183Z,3.30
2018-09-10T12:47:55.069Z,3.20
2018-09-10T12:48:54.958Z,3.10
2018-09-10T12:49:54.839Z,3.30
2018-09-10T12:50:54.725Z,3.10
2018-09-10T12:51:54.611Z,2.80
2018-09-10T12:52:54.497Z,3.20
2018-09-10T12:53:54.382Z,3.00
2018-09-10T12:54:54.264Z,2.90
2018-09-10T12:55:54.149Z,3.10
2018-09-10T12:56:54.044Z,2.80
2018-09-10T12:57:53.918Z,3.10
2018-09-10T12:58:53.876Z,3.10
2018-09-10T12:59:53.689Z,3.00
2018-09-10T13:00:53.574Z,2.90
2018-09-10T13:01:53.458Z,3.10
2018-09-10T13:02:53.345Z,3.20
2018-09-10T13:03:53.227Z,3.30
2018-09-10T13:04:53.110Z,3.20
2018-09-10T13:05:52.995Z,3.10
2018-09-10T13:06:52.880Z,3.10
2018-09-10T13:07:52.764Z,3.10
2018-09-10T13:08:52.649Z,3.00
2018-09-10T13:09:52.532Z,3.20
2018-09-10T13:10:52.416Z,3.00
2018-09-10T13:11:52.301Z,3.30
2018-09-10T13:12:52.181Z,3.10
2018-09-10T13:13:52.065Z,3.10
2018-09-10T13:14:51.947Z,3.50
2018-09-10T13:15:51.833Z,3.10
2018-09-10T13:16:51.718Z,2.80